Flight Track Log - Related Links

Times and Time Zones

All times are in EDT time to prevent confusion due to time zone crossing. See the N39PH flight status page for this flight to view local times or setup timezone preferences in your user account.

Time Position Orientation Groundspeed Altitude Reporting Facility
EDT Latitude Longitude Course Direction KTS MPH feet Rate Location/Type
Mon 07:41:00 PM 36.9560 -107.3298 120° Southeast  Level FlightAware Approximate
Mon 07:41:25 PM 37.1714 -107.7297 122° Southeast 193 222 7,400  Level Denver Center
Mon 07:42:00 PM 36.9258 -107.2578 117° Southeast  Level FlightAware Approximate
Mon 07:42:27 PM 37.1531 -107.6725 112° Southeast 186 214 9,300  Level Denver Center
Mon 07:43:00 PM 36.8961 -107.1856 117° Southeast  Level FlightAware Approximate
Mon 07:43:29 PM 37.1253 -107.6197 123° Southeast 186 214 10,800  Level Denver Center
Mon 07:44:00 PM 36.8664 -107.1134 117° Southeast  Level FlightAware Approximate
Mon 07:44:31 PM 37.0856 -107.5583 129° Southeast 193 222 12,700  Level Denver Center
Mon 07:45:00 PM 36.8366 -107.0413 117° Southeast  Level FlightAware Approximate
Mon 07:45:33 PM 37.0567 -107.5000 122° Southeast 200 230 14,500  Level Denver Center
Mon 07:46:00 PM 36.8027 -106.9721 122° Southeast  Level FlightAware Approximate
Mon 07:46:35 PM 37.0319 -107.4297 114° Southeast 199 229 16,100  Level Denver Center
Mon 07:47:37 PM 37.0039 -107.3739 122° Southeast 197 227 17,600 1,210 Climbing Denver Center
Mon 07:48:39 PM 36.9761 -107.3144 120° Southeast 202 232 18,600 1,166 Climbing Denver Center
Mon 07:50:32 PM 36.9197 -107.1936 120° Southeast 209 241 21,000 862 Climbing Albuquerque Center
Mon 07:51:33 PM 36.8867 -107.1197 119° Southeast 214 246 21,100  Climbing Albuquerque Center
Mon 07:52:47 PM 36.8422 -107.0258 121° Southeast 263 303 21,000 -44 Descending Denver Center
Mon 07:53:49 PM 36.8003 -106.9331 119° Southeast 270 311 21,000  Level Denver Center
Mon 07:54:51 PM 36.7631 -106.8533 120° Southeast 275 316 21,000  Level Denver Center
Mon 07:55:53 PM 36.7203 -106.7594 120° Southeast 279 321 21,000  Level Denver Center
Mon 07:57:00 PM 36.6790 -106.6851 125° Southeast  Level FlightAware Approximate
Mon 07:57:40 PM 36.6522 -106.6122 125° Southeast 280 322 21,000  Level Albuquerque Center
Mon 07:58:42 PM 36.6144 -106.5328 121° Southeast 279 321 21,000  Level Albuquerque Center
Mon 07:59:43 PM 36.5700 -106.4400 121° Southeast 279 321 21,000  Level Albuquerque Center
Mon 08:00:44 PM 36.5322 -106.3586 120° Southeast 282 325 21,000  Level Albuquerque Center
Mon 08:02:47 PM 36.4522 -106.1864 120° Southeast 279 321 21,000  Level Albuquerque Center
Mon 08:03:48 PM 36.4167 -106.1122 121° Southeast 280 322 21,000  Level Albuquerque Center
Mon 08:04:50 PM 36.3769 -106.0267 120° Southeast 283 326 21,000  Level Albuquerque Center
Mon 08:05:51 PM 36.3361 -105.9422 121° Southeast 284 327 21,000  Level Albuquerque Center
Mon 08:06:52 PM 36.2872 -105.8389 120° Southeast 288 331 21,000  Level Albuquerque Center
Mon 08:07:54 PM 36.2456 -105.7536 121° Southeast 289 333 21,000  Level Albuquerque Center
Mon 08:08:55 PM 36.2056 -105.6692 120° Southeast 285 328 21,000  Level Albuquerque Center
Mon 08:09:57 PM 36.1650 -105.5847 121° Southeast 284 327 21,000  Level Albuquerque Center
Mon 08:10:58 PM 36.1244 -105.4989 120° Southeast 285 328 21,000  Level Albuquerque Center
Mon 08:11:59 PM 36.0814 -105.4131 122° Southeast 288 331 21,000  Level Albuquerque Center
Mon 08:13:01 PM 36.0417 -105.3292 120° Southeast 284 327 21,000  Level Albuquerque Center
Mon 08:14:02 PM 36.0006 -105.2447 121° Southeast 283 326 21,000  Level Albuquerque Center
Mon 08:15:04 PM 35.9519 -105.1467 121° Southeast 284 327 21,000  Level Albuquerque Center
Mon 08:16:05 PM 35.9117 -105.0628 121° Southeast 283 326 21,000  Level Albuquerque Center
Mon 08:17:07 PM 35.8686 -104.9783 122° Southeast 285 328 21,000  Level Albuquerque Center
Mon 08:18:08 PM 35.8275 -104.8919 120° Southeast 288 331 21,000  Level Albuquerque Center
Mon 08:20:11 PM 35.7433 -104.7214 121° Southeast 289 333 21,000  Level Albuquerque Center
Mon 08:21:13 PM 35.7006 -104.6358 122° Southeast 290 334 21,000  Level Albuquerque Center
Mon 08:22:14 PM 35.6583 -104.5500 121° Southeast 291 335 21,000 -439 Level Albuquerque Center
Mon 08:23:16 PM 35.6156 -104.4639 121° Southeast 292 336 20,100 -1,073 Descending Albuquerque Center
Mon 08:24:17 PM 35.5706 -104.3725 121° Southeast 304 350 18,800 -1,171 Descending Albuquerque Center
Mon 08:25:19 PM 35.5244 -104.2825 122° Southeast 307 353 17,700 -1,268 Descending Albuquerque Center
Mon 08:26:20 PM 35.4808 -104.1942 121° Southeast 301 346 16,200 -1,561 Descending Albuquerque Center
Mon 08:27:22 PM 35.4378 -104.1064 121° Southeast 298 343 14,500 -1,659 Descending Albuquerque Center
Mon 08:28:23 PM 35.3958 -104.0239 122° Southeast 288 331 12,800 -1,659 Descending Albuquerque Center
Mon 08:29:25 PM 35.3547 -103.9439 122° Southeast 279 321 11,100 -1,597 Descending Albuquerque Center
Mon 08:30:27 PM 35.3167 -103.8661 121° Southeast 270 311 9,500 -1,548 Descending Albuquerque Center

Login

Don't have an account? Register now (free) for customized features, flight alerts, and more!